Time;durP1;ratioP1;P1;durP2;ratioP2;P2;SDS_P1;SDS_P2;PMS_P1;PMS_P2;Temp;Humidity;BMP_temperature;BMP_pressure;BME280_temperature;BME280_humidity;BME280_pressure;Samples;Min_cycle;Max_cycle;Signal;HPM_P1;HPM_P2
2023/10/15 00:00:37;;;;;;;4.53;0.90;;;10.80;95.60;;;;;;5072037;27;20474;-67
2023/10/15 00:03:06;;;;;;;4.40;1.17;;;10.80;95.80;;;;;;5104279;27;20564;-69
2023/10/15 00:05:35;;;;;;;17.33;1.93;;;10.80;95.70;;;;;;5084543;27;20838;-69
2023/10/15 00:08:03;;;;;;;1.80;1.00;;;10.80;95.70;;;;;;5090234;28;20473;-62
2023/10/15 00:10:31;;;;;;;10.30;2.13;;;10.80;95.80;;;;;;5083838;27;20504;-63
2023/10/15 00:12:59;;;;;;;10.83;1.40;;;10.80;95.70;;;;;;5096440;27;20484;-63
2023/10/15 00:15:29;;;;;;;1.80;1.17;;;10.80;95.90;;;;;;5088615;27;20716;-62
2023/10/15 00:17:59;;;;;;;6.50;1.83;;;10.80;95.90;;;;;;5063201;27;20596;-62
2023/10/15 00:20:31;;;;;;;7.80;2.13;;;10.80;95.70;;;;;;5099611;27;20568;-63
2023/10/15 00:23:04;;;;;;;3.47;1.00;;;10.90;95.70;;;;;;5084979;28;21034;-63
2023/10/15 00:25:35;;;;;;;3.20;1.33;;;11.00;95.80;;;;;;5073382;27;20577;-62
2023/10/15 00:28:05;;;;;;;6.43;1.60;;;10.90;95.60;;;;;;5090967;27;20535;-68
2023/10/15 00:30:33;;;;;;;7.73;1.70;;;10.90;95.70;;;;;;5087630;27;20809;-67
2023/10/15 00:33:03;;;;;;;4.00;1.13;;;10.70;95.90;;;;;;5085256;27;20885;-68
2023/10/15 00:35:33;;;;;;;3.70;1.17;;;10.70;95.90;;;;;;5087407;28;20536;-68
2023/10/15 00:38:00;;;;;;;10.80;1.40;;;;;;;;;;5082022;27;20488;-66
2023/10/15 00:40:28;;;;;;;10.33;1.73;;;;;;;;;;5070846;27;20584;-68
2023/10/15 00:42:57;;;;;;;3.57;1.53;;;10.70;96.30;;;;;;5078899;28;20782;-67
2023/10/15 00:45:25;;;;;;;2.30;1.50;;;10.80;96.40;;;;;;5084914;27;20757;-68
2023/10/15 00:48:02;;;;;;;6.80;1.80;;;10.80;96.40;;;;;;5087122;27;20479;-66
2023/10/15 00:50:31;;;;;;;6.90;1.80;;;10.80;96.20;;;;;;5087246;28;20489;-68
2023/10/15 00:53:05;;;;;;;4.20;1.27;;;10.80;96.20;;;;;;5090288;28;21034;-67
2023/10/15 00:55:35;;;;;;;4.27;1.30;;;10.90;95.80;;;;;;5091958;28;20894;-68
2023/10/15 00:58:08;;;;;;;8.20;1.63;;;10.90;95.70;;;;;;5092841;27;21210;-68
2023/10/15 01:00:48;;;;;;;20.00;2.57;;;;;;;;;;5090134;28;20504;-66
2023/10/15 01:03:25;;;;;;;3.40;1.50;;;11.00;95.40;;;;;;5087898;27;21222;-66
2023/10/15 01:05:53;;;;;;;6.67;2.70;;;11.00;95.60;;;;;;5092093;28;20560;-67
2023/10/15 01:08:26;;;;;;;2.30;1.30;;;11.10;95.50;;;;;;5079515;28;20485;-69
2023/10/15 01:11:09;;;;;;;6.30;1.07;;;11.20;95.50;;;;;;5079402;28;20747;-67
2023/10/15 01:13:38;;;;;;;3.50;1.40;;;11.20;95.30;;;;;;5090469;27;20473;-68
2023/10/15 01:16:08;;;;;;;3.50;1.30;;;11.20;95.30;;;;;;5091310;27;21180;-68
2023/10/15 01:18:35;;;;;;;4.03;1.20;;;11.30;95.20;;;;;;5091774;27;20556;-68
2023/10/15 01:21:04;;;;;;;5.10;1.73;;;11.40;95.00;;;;;;5090110;28;20555;-68
2023/10/15 01:23:44;;;;;;;6.87;1.47;;;11.40;94.70;;;;;;5087763;28;20890;-68
2023/10/15 01:26:21;;;;;;;5.00;1.50;;;11.40;94.80;;;;;;5085549;28;20476;-66
2023/10/15 01:28:48;;;;;;;29.07;2.80;;;11.40;94.70;;;;;;5091332;27;20476;-68
2023/10/15 01:31:16;;;;;;;5.40;1.40;;;11.40;94.80;;;;;;5090403;28;21102;-65
2023/10/15 01:33:49;;;;;;;5.10;1.00;;;11.40;94.70;;;;;;5092839;28;20495;-68
2023/10/15 01:36:22;;;;;;;14.10;2.40;;;11.40;94.80;;;;;;5086414;28;20476;-68
2023/10/15 01:38:51;;;;;;;3.93;1.33;;;11.30;94.80;;;;;;5083224;27;20544;-68
2023/10/15 01:41:22;;;;;;;4.07;1.43;;;11.40;94.90;;;;;;5090693;27;21049;-66
2023/10/15 01:43:50;;;;;;;6.90;2.10;;;11.40;94.90;;;;;;5091095;27;21248;-67
2023/10/15 01:46:40;;;;;;;7.13;1.77;;;11.40;94.90;;;;;;5088368;27;20473;-67
2023/10/15 01:49:07;;;;;;;16.27;1.53;;;11.30;95.10;;;;;;5070317;28;20478;-68
2023/10/15 01:51:39;;;;;;;6.23;2.17;;;11.30;94.80;;;;;;5078066;28;20478;-68
2023/10/15 01:54:09;;;;;;;4.53;1.80;;;11.40;94.80;;;;;;5080025;28;20469;-68
2023/10/15 01:56:38;;;;;;;5.67;1.73;;;11.50;94.70;;;;;;5076903;28;20485;-63
2023/10/15 01:59:08;;;;;;;10.33;1.60;;;11.50;94.60;;;;;;5089133;27;20486;-62
2023/10/15 02:01:37;;;;;;;4.13;1.53;;;11.50;94.90;;;;;;5085361;28;20490;-63
2023/10/15 02:04:05;;;;;;;11.20;1.67;;;11.50;94.90;;;;;;5080979;28;20478;-61
2023/10/15 02:06:42;;;;;;;2.50;1.00;;;11.50;94.90;;;;;;5055087;27;20845;-62
2023/10/15 02:09:12;;;;;;;3.97;1.67;;;11.40;95.10;;;;;;5085674;27;20469;-63
2023/10/15 02:11:47;;;;;;;8.40;1.67;;;11.30;95.50;;;;;;5087773;27;20532;-63
2023/10/15 02:14:20;;;;;;;29.17;2.90;;;11.30;95.80;;;;;;5076109;28;20461;-64
2023/10/15 02:16:49;;;;;;;11.33;2.37;;;11.30;96.00;;;;;;5086777;27;20481;-62
2023/10/15 02:19:19;;;;;;;5.70;2.03;;;11.20;96.20;;;;;;5086046;28;20477;-62
2023/10/15 02:21:51;;;;;;;2.57;1.67;;;11.10;96.40;;;;;;5079807;28;20478;-63
2023/10/15 02:24:18;;;;;;;10.00;1.40;;;11.10;96.70;;;;;;5076161;28;20470;-61
2023/10/15 02:26:46;;;;;;;2.30;1.33;;;11.10;96.80;;;;;;5080682;28;20510;-62
2023/10/15 02:31:54;;;;;;;2.33;1.60;;;11.00;97.00;;;;;;5080488;28;20480;-61
2023/10/15 02:34:27;;;;;;;3.53;1.67;;;10.90;97.20;;;;;;5078422;28;20476;-62
2023/10/15 02:36:54;;;;;;;27.83;2.60;;;10.90;97.30;;;;;;5068012;27;20478;-62
2023/10/15 02:39:22;;;;;;;2.50;1.20;;;10.90;97.30;;;;;;5087000;27;20875;-63
2023/10/15 02:41:52;;;;;;;32.93;2.70;;;10.80;97.30;;;;;;5080053;27;20513;-61
2023/10/15 02:44:19;;;;;;;8.03;2.00;;;10.80;97.40;;;;;;5081414;28;20478;-63
2023/10/15 02:46:49;;;;;;;3.90;1.80;;;10.80;97.40;;;;;;5068711;28;20762;-68
2023/10/15 02:49:19;;;;;;;5.93;2.20;;;10.70;97.40;;;;;;5095194;27;20730;-67
2023/10/15 02:51:48;;;;;;;13.03;1.67;;;10.70;97.40;;;;;;5073457;28;20829;-66
2023/10/15 02:54:27;;;;;;;1.90;1.17;;;10.80;97.40;;;;;;5078246;28;20471;-67
2023/10/15 02:56:57;;;;;;;7.23;1.40;;;10.90;97.10;;;;;;5079648;28;20554;-68
2023/10/15 02:59:24;;;;;;;9.40;1.40;;;11.00;96.90;;;;;;5075949;28;20469;-68
2023/10/15 03:01:56;;;;;;;2.17;1.10;;;11.10;96.50;;;;;;5079216;28;20848;-68
2023/10/15 03:04:33;;;;;;;17.37;2.10;;;11.20;96.20;;;;;;5084100;28;20601;-68
2023/10/15 03:07:17;;;;;;;4.90;1.53;;;11.30;96.00;;;;;;5078797;28;20473;-62
2023/10/15 03:09:44;;;;;;;2.13;0.97;;;11.30;96.00;;;;;;5078739;28;20476;-63
2023/10/15 03:12:13;;;;;;;11.80;1.47;;;11.30;95.90;;;;;;5078310;28;20586;-63
2023/10/15 03:14:41;;;;;;;9.70;1.73;;;11.30;95.70;;;;;;5078771;28;20829;-61
2023/10/15 03:17:13;;;;;;;5.87;1.20;;;11.20;95.70;;;;;;5078397;28;20506;-62
2023/10/15 03:19:40;;;;;;;2.93;1.50;;;11.20;95.70;;;;;;5079953;28;20490;-63
2023/10/15 03:22:10;;;;;;;4.40;1.17;;;11.20;95.70;;;;;;5082151;28;20964;-61
2023/10/15 03:24:37;;;;;;;4.40;1.67;;;11.20;95.70;;;;;;5075206;28;20930;-63
2023/10/15 03:27:05;;;;;;;4.90;1.60;;;11.10;95.90;;;;;;5076283;27;21250;-62
2023/10/15 03:29:34;;;;;;;5.40;1.30;;;11.10;96.00;;;;;;5087100;27;20477;-62
2023/10/15 03:32:09;;;;;;;2.67;1.10;;;11.10;95.70;;;;;;5072196;28;20476;-61
2023/10/15 03:34:35;;;;;;;3.47;1.37;;;11.10;95.50;;;;;;5071533;28;20482;-63
2023/10/15 03:37:05;;;;;;;14.73;1.47;;;11.10;95.30;;;;;;5077219;28;20478;-63
2023/10/15 03:39:54;;;;;;;3.20;1.57;;;11.10;95.10;;;;;;5071294;28;20477;-62
2023/10/15 03:42:26;;;;;;;5.60;1.43;;;11.10;95.00;;;;;;5073738;28;20486;-62
2023/10/15 03:44:59;;;;;;;1.83;1.20;;;11.00;95.20;;;;;;5079321;28;20489;-62
2023/10/15 03:47:26;;;;;;;11.10;2.20;;;10.80;95.20;;;;;;5079846;28;20561;-63
2023/10/15 03:49:55;;;;;;;6.10;1.60;;;10.50;95.40;;;;;;5076229;28;20855;-62
2023/10/15 03:52:22;;;;;;;2.83;1.20;;;10.50;95.40;;;;;;5076131;28;20496;-63
2023/10/15 03:54:50;;;;;;;16.70;2.03;;;10.40;95.50;;;;;;5078397;28;20478;-63
2023/10/15 03:57:18;;;;;;;5.90;1.60;;;10.30;95.50;;;;;;5073088;28;20992;-62
2023/10/15 03:59:52;;;;;;;9.33;1.73;;;10.00;96.10;;;;;;5077430;28;20478;-63
2023/10/15 04:02:26;;;;;;;3.30;1.83;;;10.10;96.10;;;;;;5061261;28;20486;-63
2023/10/15 04:05:07;;;;;;;2.20;1.03;;;10.10;96.00;;;;;;5081816;28;20484;-63
2023/10/15 04:07:39;;;;;;;9.17;1.70;;;10.10;95.80;;;;;;5077819;27;20469;-68
2023/10/15 04:10:07;;;;;;;7.60;1.30;;;10.00;96.00;;;;;;5067236;27;20754;-68
2023/10/15 04:12:35;;;;;;;2.73;1.20;;;9.90;96.70;;;;;;5084503;27;20475;-68
2023/10/15 04:15:12;;;;;;;2.43;1.40;;;9.70;96.90;;;;;;5079876;28;20523;-66
2023/10/15 04:17:44;;;;;;;8.03;1.43;;;9.60;97.00;;;;;;5101328;27;20465;-69
2023/10/15 04:20:15;;;;;;;8.10;1.73;;;;;;;;;;5093362;27;20485;-67
2023/10/15 04:22:44;;;;;;;5.13;1.43;;;9.70;96.50;;;;;;5092331;28;20488;-68
2023/10/15 04:25:23;;;;;;;10.87;2.73;;;9.60;96.30;;;;;;5106172;27;20509;-66
2023/10/15 04:27:50;;;;;;;11.93;1.60;;;9.40;96.60;;;;;;5095485;27;20485;-68
2023/10/15 04:30:17;;;;;;;2.03;1.27;;;9.20;96.70;;;;;;5106210;27;20560;-67
2023/10/15 04:32:46;;;;;;;2.53;1.20;;;9.20;96.80;;;;;;5092736;27;20475;-68
2023/10/15 04:35:17;;;;;;;1.83;1.00;;;9.00;97.10;;;;;;5097458;27;20591;-66
2023/10/15 04:37:44;;;;;;;7.40;1.77;;;9.00;97.10;;;;;;5114879;27;20480;-69
2023/10/15 04:40:22;;;;;;;3.17;1.03;;;8.80;97.10;;;;;;5078640;27;20524;-68
2023/10/15 04:42:49;;;;;;;3.13;1.17;;;8.70;97.50;;;;;;5101138;27;20482;-69
2023/10/15 04:45:23;;;;;;;1.60;0.80;;;8.60;97.70;;;;;;5096085;27;21188;-69
2023/10/15 04:47:52;;;;;;;7.97;1.50;;;8.40;98.10;;;;;;5095762;28;20468;-69
2023/10/15 04:50:20;;;;;;;2.00;1.20;;;8.40;98.30;;;;;;5085475;27;21393;-69
2023/10/15 04:52:47;;;;;;;3.23;1.57;;;8.20;98.00;;;;;;5101119;27;20504;-67
2023/10/15 04:55:17;;;;;;;2.20;0.90;;;8.20;98.10;;;;;;5101529;27;20469;-68
2023/10/15 04:57:45;;;;;;;3.77;1.80;;;;;;;;;;5093024;27;20488;-68
2023/10/15 05:00:14;;;;;;;3.93;1.60;;;8.20;98.20;;;;;;5106285;27;20502;-67
2023/10/15 05:02:42;;;;;;;1.60;0.77;;;8.40;97.80;;;;;;5113949;27;20484;-66
2023/10/15 05:05:11;;;;;;;2.60;0.90;;;8.50;97.40;;;;;;5107135;27;20479;-67
2023/10/15 05:07:38;;;;;;;4.30;1.40;;;8.50;97.20;;;;;;5120613;27;20480;-66
2023/10/15 05:10:06;;;;;;;3.27;1.13;;;8.60;96.90;;;;;;5081960;28;21070;-69
2023/10/15 05:12:33;;;;;;;6.73;1.53;;;8.40;97.00;;;;;;5116302;27;20716;-67
2023/10/15 05:15:00;;;;;;;1.87;0.80;;;8.40;97.10;;;;;;5112446;27;20880;-69
2023/10/15 05:17:27;;;;;;;2.50;1.03;;;8.30;97.80;;;;;;5103899;27;20484;-63
2023/10/15 05:19:54;;;;;;;2.63;1.83;;;8.30;97.70;;;;;;5097746;27;20475;-62
2023/10/15 05:22:22;;;;;;;14.23;2.07;;;8.30;97.90;;;;;;5098965;27;20560;-61
2023/10/15 05:24:49;;;;;;;2.40;1.23;;;8.30;98.00;;;;;;5099102;27;20854;-63
2023/10/15 05:27:16;;;;;;;2.20;1.57;;;8.30;98.10;;;;;;5094626;27;20472;-63
2023/10/15 05:29:43;;;;;;;16.80;2.10;;;8.10;97.70;;;;;;5115446;27;20472;-62
2023/10/15 05:32:10;;;;;;;3.80;1.57;;;8.10;97.80;;;;;;5110124;27;20463;-63
2023/10/15 05:34:36;;;;;;;2.00;0.97;;;8.20;98.10;;;;;;5091348;27;20492;-63
2023/10/15 05:37:03;;;;;;;7.03;2.00;;;8.20;97.70;;;;;;5089411;27;20484;-63
2023/10/15 05:39:31;;;;;;;3.60;1.10;;;8.30;97.30;;;;;;5112776;27;20482;-63
2023/10/15 05:41:58;;;;;;;2.67;1.03;;;8.30;97.10;;;;;;5088396;27;20480;-62
2023/10/15 05:44:26;;;;;;;1.87;0.90;;;8.30;97.00;;;;;;5103411;27;20853;-63
2023/10/15 05:46:53;;;;;;;2.80;1.00;;;8.20;96.60;;;;;;5103924;27;20522;-62
2023/10/15 05:49:19;;;;;;;3.70;1.20;;;8.00;97.00;;;;;;5120197;27;20471;-61
2023/10/15 05:51:46;;;;;;;2.30;1.33;;;7.80;97.40;;;;;;5090067;27;20481;-63
2023/10/15 05:54:13;;;;;;;2.07;1.10;;;7.70;97.40;;;;;;5103919;27;20868;-64
2023/10/15 05:56:42;;;;;;;17.37;1.77;;;;;;;;;;5091643;27;20480;-62
2023/10/15 05:59:08;;;;;;;4.47;1.13;;;7.60;97.80;;;;;;5105161;27;20472;-64
2023/10/15 06:01:35;;;;;;;7.93;1.20;;;7.60;98.20;;;;;;5114569;27;20468;-62
2023/10/15 06:04:02;;;;;;;9.07;2.20;;;7.60;98.80;;;;;;5101713;27;20538;-62
2023/10/15 06:06:29;;;;;;;3.23;1.60;;;7.60;99.00;;;;;;5100086;27;20484;-62
2023/10/15 06:08:59;;;;;;;5.77;1.63;;;7.80;99.10;;;;;;5115494;27;20480;-63
2023/10/15 06:11:26;;;;;;;5.33;2.27;;;8.00;99.50;;;;;;5098079;27;20977;-62
2023/10/15 06:13:54;;;;;;;3.10;1.37;;;8.00;99.10;;;;;;5103781;27;20584;-64
2023/10/15 06:16:21;;;;;;;3.93;1.40;;;8.10;98.80;;;;;;5102527;27;20844;-62
2023/10/15 06:18:48;;;;;;;15.40;1.80;;;8.00;98.00;;;;;;5116034;27;20469;-63
2023/10/15 06:21:15;;;;;;;4.50;1.87;;;8.10;98.50;;;;;;5102243;27;20567;-62
2023/10/15 06:23:42;;;;;;;4.13;1.77;;;8.20;98.70;;;;;;5095854;27;20478;-63
2023/10/15 06:26:10;;;;;;;3.13;1.90;;;;;;;;;;5105748;27;20542;-63
2023/10/15 06:28:36;;;;;;;5.53;2.20;;;8.20;99.50;;;;;;5090093;27;20483;-63
2023/10/15 06:31:05;;;;;;;17.43;3.27;;;8.20;99.60;;;;;;5094650;27;20493;-63
2023/10/15 06:33:32;;;;;;;4.47;2.40;;;8.20;99.70;;;;;;5113340;27;20495;-64
2023/10/15 06:35:59;;;;;;;10.83;1.80;;;8.20;99.90;;;;;;5120579;27;20875;-64
2023/10/15 06:38:26;;;;;;;8.53;2.17;;;8.20;99.90;;;;;;5108378;27;20484;-68
2023/10/15 06:40:53;;;;;;;5.87;2.97;;;8.40;99.90;;;;;;5107818;27;20489;-68
2023/10/15 06:43:19;;;;;;;7.10;2.27;;;8.40;99.90;;;;;;5113462;27;21251;-68
2023/10/15 06:45:47;;;;;;;11.80;2.70;;;8.40;99.90;;;;;;5106159;27;20487;-68
2023/10/15 06:48:15;;;;;;;5.20;3.30;;;8.40;99.90;;;;;;5095721;27;20480;-68
2023/10/15 06:50:42;;;;;;;9.30;4.33;;;8.50;99.90;;;;;;5104208;27;20988;-68
2023/10/15 06:53:09;;;;;;;10.10;3.13;;;8.80;99.90;;;;;;5113082;27;20471;-68
2023/10/15 06:55:36;;;;;;;6.30;4.90;;;9.00;99.90;;;;;;5092230;27;21215;-68
2023/10/15 06:58:03;;;;;;;7.87;3.63;;;9.20;99.90;;;;;;5106585;27;20848;-66
2023/10/15 07:00:32;;;;;;;11.47;5.80;;;10.60;99.90;;;;;;5103693;27;20516;-67
2023/10/15 07:02:58;;;;;;;11.57;4.47;;;11.30;98.80;;;;;;5110399;27;20734;-68
2023/10/15 07:05:27;;;;;;;50.73;7.20;;;12.90;96.80;;;;;;5120120;27;21081;-67
2023/10/15 07:07:56;;;;;;;10.70;5.70;;;13.50;95.00;;;;;;5097877;27;20480;-67
2023/10/15 07:10:23;;;;;;;12.90;4.80;;;14.60;94.10;;;;;;5106271;27;21015;-66
2023/10/15 07:12:51;;;;;;;24.57;5.67;;;15.20;92.20;;;;;;5096415;27;21268;-67
2023/10/15 07:15:20;;;;;;;8.70;3.87;;;15.70;91.50;;;;;;5107293;27;20464;-68
2023/10/15 07:17:49;;;;;;;5.00;2.80;;;16.30;91.30;;;;;;5100585;27;20473;-63
2023/10/15 07:20:18;;;;;;;10.13;3.93;;;16.70;90.50;;;;;;5101983;27;20495;-63
2023/10/15 07:22:48;;;;;;;8.93;3.37;;;17.30;89.70;;;;;;5115848;27;20499;-63
2023/10/15 07:25:16;;;;;;;6.03;3.10;;;17.70;88.60;;;;;;5110728;27;20891;-63
2023/10/15 07:27:45;;;;;;;5.93;2.63;;;18.20;87.10;;;;;;5086361;27;20480;-62
2023/10/15 07:30:13;;;;;;;3.80;2.73;;;18.20;84.80;;;;;;5107431;27;20506;-64
2023/10/15 07:32:40;;;;;;;6.53;2.57;;;18.70;85.00;;;;;;5108379;27;20500;-63
2023/10/15 07:35:11;;;;;;;6.03;2.67;;;18.90;82.60;;;;;;5103949;27;20477;-63
2023/10/15 07:37:39;;;;;;;9.43;3.17;;;;;;;;;;5094950;28;20749;-67
2023/10/15 07:40:16;;;;;;;26.07;4.27;;;19.70;81.20;;;;;;5117423;27;20522;-66
2023/10/15 07:42:45;;;;;;;3.93;2.80;;;20.00;80.80;;;;;;5119705;27;20532;-66
2023/10/15 07:45:12;;;;;;;3.30;2.27;;;20.30;79.60;;;;;;5109049;27;20488;-66
2023/10/15 07:47:39;;;;;;;23.63;3.80;;;20.10;79.20;;;;;;5097400;27;20471;-62
2023/10/15 07:50:09;;;;;;;10.33;3.30;;;20.10;78.30;;;;;;5096268;27;20469;-64
2023/10/15 07:52:37;;;;;;;3.10;2.07;;;19.90;78.30;;;;;;5103884;27;20485;-63
2023/10/15 07:55:06;;;;;;;26.53;3.40;;;19.80;78.00;;;;;;5091331;27;20646;-63
2023/10/15 07:57:37;;;;;;;3.70;2.60;;;19.60;78.20;;;;;;5105465;27;21130;-64
2023/10/15 08:00:06;;;;;;;5.47;2.60;;;19.40;78.20;;;;;;5102534;27;20477;-63
2023/10/15 08:02:35;;;;;;;3.40;2.20;;;19.00;79.60;;;;;;5088912;27;21049;-62
2023/10/15 08:05:01;;;;;;;5.20;3.50;;;18.80;79.70;;;;;;5107665;27;20976;-64
2023/10/15 08:07:29;;;;;;;24.33;4.30;;;;;;;;;;5116846;27;20479;-63
2023/10/15 08:09:56;;;;;;;3.70;2.60;;;17.50;81.40;;;;;;5102018;27;20488;-63
2023/10/15 08:12:22;;;;;;;10.70;3.00;;;17.40;83.50;;;;;;5117397;27;20841;-63
2023/10/15 08:14:51;;;;;;;17.93;3.60;;;17.30;83.10;;;;;;5104620;27;20479;-63
2023/10/15 08:17:18;;;;;;;4.40;2.30;;;17.40;84.00;;;;;;5096847;27;21061;-63
2023/10/15 08:19:44;;;;;;;4.93;1.90;;;16.80;81.60;;;;;;5098242;27;20489;-62
2023/10/15 08:22:12;;;;;;;19.33;3.63;;;16.80;86.30;;;;;;5111346;27;20477;-64
2023/10/15 08:24:39;;;;;;;9.33;2.47;;;16.80;83.80;;;;;;5101224;27;20828;-62
2023/10/15 08:27:06;;;;;;;4.93;2.63;;;16.80;85.10;;;;;;5086114;28;20476;-63
2023/10/15 08:29:33;;;;;;;10.83;1.93;;;16.50;83.10;;;;;;5082515;27;20473;-63
2023/10/15 08:32:02;;;;;;;5.93;2.17;;;16.30;81.90;;;;;;5112399;27;20486;-62
2023/10/15 08:34:29;;;;;;;13.97;2.40;;;16.10;83.30;;;;;;5089987;27;20480;-62
2023/10/15 08:36:56;;;;;;;7.67;2.40;;;;;;;;;;5102475;27;20478;-62
2023/10/15 08:39:23;;;;;;;3.77;1.97;;;16.00;84.30;;;;;;5093933;27;20477;-63
2023/10/15 08:41:55;;;;;;;35.90;3.23;;;15.70;83.80;;;;;;5094131;28;20477;-62
2023/10/15 08:44:22;;;;;;;8.23;2.70;;;15.70;84.00;;;;;;5102977;27;20484;-63
2023/10/15 08:46:53;;;;;;;5.50;2.70;;;15.30;83.40;;;;;;5099390;28;20481;-66
2023/10/15 08:49:25;;;;;;;24.67;2.70;;;15.50;87.40;;;;;;5098931;27;20455;-65
2023/10/15 08:51:52;;;;;;;5.50;1.70;;;15.70;85.30;;;;;;5104061;27;20541;-65
2023/10/15 08:54:25;;;;;;;13.80;2.47;;;15.80;84.90;;;;;;5108454;27;20473;-66
2023/10/15 08:56:55;;;;;;;4.10;2.57;;;16.00;85.40;;;;;;5084348;28;20461;-62
2023/10/15 08:59:23;;;;;;;3.30;2.10;;;16.00;83.50;;;;;;5107366;27;21092;-62
2023/10/15 09:01:52;;;;;;;4.80;2.83;;;15.90;83.90;;;;;;5091983;27;20550;-62
2023/10/15 09:04:21;;;;;;;9.80;2.57;;;15.70;82.80;;;;;;5090738;28;20544;-62
2023/10/15 09:06:49;;;;;;;7.73;2.00;;;15.50;84.10;;;;;;5098404;27;20516;-66
2023/10/15 09:09:16;;;;;;;32.67;4.17;;;15.20;84.20;;;;;;5109552;27;20484;-65
2023/10/15 09:11:43;;;;;;;5.57;1.90;;;15.10;84.30;;;;;;5090004;27;20481;-65
2023/10/15 09:14:13;;;;;;;20.10;2.93;;;15.20;85.70;;;;;;5081475;27;20491;-64
2023/10/15 09:16:46;;;;;;;10.57;2.30;;;15.30;87.60;;;;;;5125271;27;20562;-65
2023/10/15 09:19:14;;;;;;;5.87;2.63;;;15.50;87.30;;;;;;5093955;27;20485;-65
2023/10/15 09:21:45;;;;;;;5.77;1.63;;;15.80;84.20;;;;;;5116598;27;20494;-66
2023/10/15 09:24:13;;;;;;;12.43;2.03;;;15.90;83.00;;;;;;5103182;27;20477;-66
2023/10/15 09:26:41;;;;;;;5.10;1.80;;;16.00;83.10;;;;;;5098270;27;20485;-66
2023/10/15 09:29:20;;;;;;;2.83;1.37;;;16.10;83.20;;;;;;5099548;27;20487;-66
2023/10/15 09:31:49;;;;;;;12.40;1.80;;;16.10;83.30;;;;;;5111707;27;20477;-66
2023/10/15 09:34:15;;;;;;;9.80;2.83;;;16.10;83.20;;;;;;5109909;27;20555;-66
2023/10/15 09:36:44;;;;;;;3.33;2.00;;;16.00;81.30;;;;;;5085074;27;20479;-66
2023/10/15 09:39:13;;;;;;;11.30;2.20;;;16.10;82.80;;;;;;5097147;27;20475;-65
2023/10/15 09:41:41;;;;;;;3.57;1.90;;;16.00;81.00;;;;;;5093470;27;20488;-65
2023/10/15 09:44:14;;;;;;;13.63;1.70;;;16.10;81.10;;;;;;5097712;27;20485;-67
2023/10/15 09:46:42;;;;;;;5.90;1.53;;;16.10;80.80;;;;;;5089026;27;20468;-67
2023/10/15 09:49:10;;;;;;;3.13;1.40;;;16.00;79.30;;;;;;5094007;27;21273;-66
2023/10/15 09:51:38;;;;;;;9.53;1.73;;;15.90;79.40;;;;;;5082792;27;20480;-67
2023/10/15 09:54:11;;;;;;;3.13;1.27;;;15.70;78.00;;;;;;5115685;27;20472;-66
2023/10/15 09:56:41;;;;;;;7.37;2.40;;;15.60;81.20;;;;;;5076847;27;20493;-66
2023/10/15 09:59:09;;;;;;;15.07;2.50;;;15.50;79.00;;;;;;5114597;27;20901;-65
2023/10/15 10:01:41;;;;;;;2.40;1.20;;;15.70;81.10;;;;;;5086007;27;20484;-66
2023/10/15 10:04:43;;;;;;;5.03;1.20;;;16.00;79.60;;;;;;5117484;27;20468;-66
2023/10/15 10:07:53;;;;;;;5.60;1.37;;;16.20;80.20;;;;;;5120611;27;20590;-66
2023/10/15 10:10:55;;;;;;;4.70;1.30;;;16.30;79.60;;;;;;5062795;27;20464;-67
2023/10/15 10:14:02;;;;;;;2.07;1.03;;;16.20;76.80;;;;;;5120610;27;20466;-65
2023/10/15 10:16:31;;;;;;;2.13;0.80;;;16.30;78.00;;;;;;5098168;27;21021;-65
2023/10/15 10:18:58;;;;;;;7.73;1.13;;;16.30;78.00;;;;;;5103407;27;20575;-65
2023/10/15 10:21:30;;;;;;;21.37;2.27;;;16.40;78.60;;;;;;5092583;27;20505;-65
2023/10/15 10:23:59;;;;;;;2.97;1.50;;;16.60;78.80;;;;;;5098036;27;20472;-65
2023/10/15 10:26:28;;;;;;;2.83;1.00;;;16.40;74.20;;;;;;5114798;27;20467;-66
2023/10/15 10:28:59;;;;;;;6.67;1.33;;;16.20;72.80;;;;;;5100910;27;20511;-65
2023/10/15 10:31:29;;;;;;;8.97;1.40;;;16.10;74.60;;;;;;5107361;27;20472;-66
2023/10/15 10:34:01;;;;;;;4.33;1.37;;;16.20;75.90;;;;;;5113638;27;20520;-67
2023/10/15 10:36:30;;;;;;;1.80;0.80;;;16.30;75.60;;;;;;5093730;28;20473;-65
2023/10/15 10:38:59;;;;;;;18.33;2.33;;;16.30;73.80;;;;;;5100447;27;20552;-66
2023/10/15 10:41:36;;;;;;;2.87;1.33;;;16.30;74.40;;;;;;5098886;27;20480;-65
2023/10/15 10:44:05;;;;;;;1.67;0.70;;;16.30;73.40;;;;;;5080312;27;20857;-66
2023/10/15 10:46:41;;;;;;;5.70;1.07;;;16.40;74.50;;;;;;5098281;27;20565;-65
2023/10/15 10:49:13;;;;;;;1.80;0.93;;;16.50;75.00;;;;;;5103040;27;20827;-66
2023/10/15 10:51:40;;;;;;;1.70;0.70;;;16.50;75.00;;;;;;5108279;27;20476;-66
2023/10/15 10:54:28;;;;;;;8.27;1.57;;;16.40;73.70;;;;;;5117018;27;20485;-65
2023/10/15 10:57:02;;;;;;;7.33;1.80;;;16.10;73.50;;;;;;5074081;28;21213;-64
2023/10/15 10:59:31;;;;;;;15.67;2.43;;;15.70;73.30;;;;;;5087617;27;20481;-66
2023/10/15 11:01:59;;;;;;;3.87;1.33;;;15.50;74.30;;;;;;5089603;27;20465;-69
2023/10/15 11:04:26;;;;;;;7.57;1.20;;;15.20;73.10;;;;;;5111279;27;20481;-67
2023/10/15 11:06:53;;;;;;;12.67;1.53;;;15.10;73.40;;;;;;5097990;28;20920;-66
2023/10/15 11:09:20;;;;;;;2.40;1.30;;;15.20;75.90;;;;;;5078069;28;20569;-67
2023/10/15 11:11:48;;;;;;;1.70;1.00;;;15.20;75.50;;;;;;5087893;27;20558;-66
2023/10/15 11:14:15;;;;;;;12.40;2.17;;;14.80;74.50;;;;;;5098996;27;20468;-66
2023/10/15 11:16:44;;;;;;;5.83;1.30;;;14.70;76.80;;;;;;5094224;27;20473;-65
2023/10/15 11:19:15;;;;;;;2.37;1.00;;;14.70;78.50;;;;;;5090480;27;20492;-65
2023/10/15 11:21:42;;;;;;;3.13;0.90;;;14.40;76.60;;;;;;5091130;27;20479;-65
2023/10/15 11:24:09;;;;;;;4.23;0.90;;;14.10;78.40;;;;;;5086589;28;20547;-65
2023/10/15 11:26:37;;;;;;;8.33;1.53;;;13.70;81.50;;;;;;5074650;28;20862;-63
2023/10/15 11:29:05;;;;;;;1.67;0.90;;;13.60;81.20;;;;;;5093478;27;20481;-62
2023/10/15 11:31:34;;;;;;;1.80;0.90;;;13.40;82.00;;;;;;5103378;27;20496;-62
2023/10/15 11:34:02;;;;;;;20.77;2.73;;;13.50;83.90;;;;;;5100508;27;20508;-62
2023/10/15 11:36:34;;;;;;;4.90;1.20;;;13.50;82.20;;;;;;5114838;27;20464;-61
2023/10/15 11:39:08;;;;;;;3.20;1.40;;;13.50;83.30;;;;;;5093590;27;20485;-63
2023/10/15 11:41:38;;;;;;;2.10;0.90;;;13.50;84.00;;;;;;5094533;27;20476;-61
2023/10/15 11:44:06;;;;;;;10.03;1.30;;;13.70;83.70;;;;;;5080343;28;21000;-62
2023/10/15 11:46:35;;;;;;;2.40;1.10;;;14.00;85.40;;;;;;5094007;28;20530;-63
2023/10/15 11:49:04;;;;;;;2.00;0.90;;;14.30;86.20;;;;;;5086392;27;20473;-62
2023/10/15 11:51:31;;;;;;;1.97;1.10;;;14.50;84.40;;;;;;5090990;28;20564;-62
2023/10/15 11:54:01;;;;;;;4.27;1.00;;;14.70;82.80;;;;;;5069841;27;20500;-61
2023/10/15 11:56:29;;;;;;;1.83;1.00;;;15.20;85.10;;;;;;5078230;28;21126;-61
2023/10/15 11:58:57;;;;;;;8.70;2.13;;;15.20;79.80;;;;;;5079402;27;20482;-62
2023/10/15 12:01:26;;;;;;;30.53;2.37;;;15.20;77.20;;;;;;5111045;27;20504;-61
2023/10/15 12:03:56;;;;;;;3.67;1.30;;;15.40;79.70;;;;;;5110985;27;20560;-61
2023/10/15 12:06:25;;;;;;;9.53;1.43;;;15.50;78.40;;;;;;5099419;27;20484;-62
2023/10/15 12:08:55;;;;;;;10.00;1.27;;;15.50;75.80;;;;;;5111257;27;21041;-61
2023/10/15 12:11:25;;;;;;;1.90;1.10;;;15.80;78.80;;;;;;5104286;27;20529;-61
2023/10/15 12:13:53;;;;;;;1.80;1.00;;;16.00;78.00;;;;;;5090904;27;20485;-61
2023/10/15 12:16:20;;;;;;;1.60;0.80;;;16.00;74.10;;;;;;5100122;27;20526;-62
2023/10/15 12:18:47;;;;;;;2.33;1.20;;;16.20;76.10;;;;;;5100397;27;21011;-62
2023/10/15 12:21:15;;;;;;;1.90;0.97;;;16.30;74.20;;;;;;5103845;27;20987;-62
2023/10/15 12:23:44;;;;;;;2.03;1.37;;;16.40;70.40;;;;;;5099663;28;20473;-62
2023/10/15 12:26:11;;;;;;;4.30;1.00;;;16.40;72.70;;;;;;5086069;27;20488;-61
2023/10/15 12:28:44;;;;;;;4.73;1.90;;;16.40;71.90;;;;;;5099865;27;20477;-62
2023/10/15 12:31:12;;;;;;;7.53;1.17;;;16.40;72.20;;;;;;5108894;27;20540;-62
2023/10/15 12:33:39;;;;;;;2.13;1.00;;;16.70;72.40;;;;;;5108126;27;20605;-62
2023/10/15 12:36:09;;;;;;;19.43;1.63;;;16.60;64.30;;;;;;5075654;27;20949;-62
2023/10/15 12:38:36;;;;;;;2.07;0.80;;;16.70;63.40;;;;;;5099471;27;21038;-63
2023/10/15 12:41:06;;;;;;;2.43;1.10;;;16.90;66.70;;;;;;5095662;28;21018;-62
2023/10/15 12:43:33;;;;;;;3.10;0.97;;;17.10;64.10;;;;;;5088921;28;20473;-62
2023/10/15 12:46:00;;;;;;;10.90;1.07;;;17.30;64.40;;;;;;5101919;27;20482;-61
2023/10/15 12:48:29;;;;;;;3.60;1.00;;;17.40;65.50;;;;;;5099294;27;20846;-63
2023/10/15 12:50:56;;;;;;;2.10;0.83;;;17.40;64.80;;;;;;5091569;27;21010;-63
2023/10/15 12:53:24;;;;;;;2.07;0.87;;;17.40;63.80;;;;;;5094659;27;20476;-64
2023/10/15 12:55:51;;;;;;;5.63;1.07;;;17.60;64.10;;;;;;5104181;27;20483;-61
2023/10/15 12:58:19;;;;;;;1.63;0.77;;;17.70;64.20;;;;;;5080651;27;20484;-62
2023/10/15 13:00:49;;;;;;;1.70;0.70;;;17.90;66.70;;;;;;5096328;27;20556;-62
2023/10/15 13:03:17;;;;;;;2.30;1.00;;;18.10;65.20;;;;;;5101270;27;20485;-63
2023/10/15 13:05:44;;;;;;;5.80;1.13;;;18.30;65.40;;;;;;5093828;27;20467;-62